Time;durP1;ratioP1;P1;durP2;ratioP2;P2;SDS_P1;SDS_P2;PMS_P1;PMS_P2;Temp;Humidity;BMP_temperature;BMP_pressure;BME280_temperature;BME280_humidity;BME280_pressure;Samples;Min_cycle;Max_cycle;Signal;HPM_P1;HPM_P2
2022/06/01 00:01:04;;;;;;;20.40;10.50;;;16.60;99.90;;;;;;5009389;28;20050;-73
2022/06/01 00:03:36;;;;;;;20.92;11.35;;;16.50;99.90;;;;;;4991759;28;20038;-72
2022/06/01 00:06:02;;;;;;;;;;;16.40;99.90;;;;;;4992893;28;20057;-73
2022/06/01 00:08:28;;;;;;;26.00;10.88;;;16.40;99.90;;;;;;5006533;28;19964;-73
2022/06/01 00:10:55;;;;;;;24.23;11.73;;;16.50;99.90;;;;;;4992131;28;20042;-71
2022/06/01 00:13:21;;;;;;;19.50;11.15;;;16.40;99.90;;;;;;4992334;28;20109;-70
2022/06/01 00:15:48;;;;;;;25.50;11.88;;;16.30;99.90;;;;;;4992929;28;20117;-72
2022/06/01 00:18:14;;;;;;;15.68;8.65;;;16.30;99.90;;;;;;4992287;28;20022;-73
2022/06/01 00:20:40;;;;;;;19.25;8.77;;;16.40;99.90;;;;;;4992492;28;20396;-69
2022/06/01 00:23:06;;;;;;;14.85;8.07;;;16.40;99.90;;;;;;4992426;28;20034;-73
2022/06/01 00:25:33;;;;;;;17.77;9.23;;;16.40;99.90;;;;;;4992386;28;20030;-69
2022/06/01 00:27:58;;;;;;;13.57;8.15;;;16.40;99.90;;;;;;4992282;28;20140;-72
2022/06/01 00:30:24;;;;;;;14.23;7.75;;;16.30;99.90;;;;;;5023502;28;20026;-72
2022/06/01 00:32:50;;;;;;;19.65;9.63;;;16.30;99.90;;;;;;4993786;28;20066;-71
2022/06/01 00:35:19;;;;;;;16.67;9.95;;;16.30;99.90;;;;;;4995527;28;20038;-72
2022/06/01 00:37:45;;;;;;;18.48;10.32;;;16.20;99.90;;;;;;4995186;28;20497;-72
2022/06/01 00:40:13;;;;;;;19.08;10.10;;;16.20;99.90;;;;;;4995613;28;20023;-73
2022/06/01 00:42:42;;;;;;;18.17;8.95;;;16.30;99.90;;;;;;4995680;28;20038;-72
2022/06/01 00:45:10;;;;;;;17.17;8.57;;;16.30;99.90;;;;;;4995370;28;20076;-71
2022/06/01 00:47:36;;;;;;;16.75;9.15;;;16.30;99.90;;;;;;4995307;28;20464;-73
2022/06/01 00:50:09;;;;;;;14.07;7.53;;;16.30;99.90;;;;;;4995773;28;20034;-72
2022/06/01 00:52:45;;;;;;;10.88;6.50;;;16.20;99.90;;;;;;4995368;28;20050;-73
2022/06/01 00:55:14;;;;;;;15.63;6.93;;;16.30;99.90;;;;;;4994859;28;20084;-72
2022/06/01 00:57:41;;;;;;;14.63;6.63;;;16.30;99.90;;;;;;4995532;28;20030;-73
2022/06/01 01:00:15;;;;;;;12.27;6.82;;;16.30;99.90;;;;;;4995595;28;20053;-72
2022/06/01 01:02:41;;;;;;;13.98;6.78;;;16.30;99.90;;;;;;4995983;28;20038;-72
2022/06/01 01:05:11;;;;;;;10.95;5.20;;;16.30;99.90;;;;;;4995702;28;20026;-71
2022/06/01 01:07:40;;;;;;;11.52;5.80;;;16.30;99.90;;;;;;4995497;28;20034;-74
2022/06/01 01:10:07;;;;;;;15.80;4.80;;;16.30;99.90;;;;;;4994523;28;20044;-73
2022/06/01 01:15:19;;;;;;;7.03;4.05;;;16.30;99.90;;;;;;4995321;28;20022;-73
2022/06/01 01:17:48;;;;;;;8.07;4.22;;;16.30;99.90;;;;;;4995488;28;20110;-72
2022/06/01 01:20:14;;;;;;;11.48;4.43;;;16.30;99.90;;;;;;4995781;28;20040;-72
2022/06/01 01:22:50;;;;;;;10.68;4.25;;;16.20;99.90;;;;;;4994889;28;20111;-74
2022/06/01 01:25:32;;;;;;;8.20;4.20;;;16.00;99.90;;;;;;4995262;28;20031;-73
2022/06/01 01:28:00;;;;;;;19.00;4.78;;;16.00;99.90;;;;;;4995436;28;20481;-73
2022/06/01 01:30:57;;;;;;;11.43;4.53;;;15.90;99.90;;;;;;4995419;28;20034;-73
2022/06/01 01:33:26;;;;;;;8.93;4.60;;;15.80;99.90;;;;;;4995188;28;20176;-72
2022/06/01 01:35:56;;;;;;;10.40;4.68;;;15.90;99.90;;;;;;5011419;28;20030;-71
2022/06/01 01:39:01;;;;;;;10.32;4.75;;;15.90;99.90;;;;;;4996541;28;20030;-72
2022/06/01 01:41:56;;;;;;;8.15;4.65;;;15.90;99.90;;;;;;4994987;28;20041;-74
2022/06/01 01:44:36;;;;;;;18.42;4.60;;;15.90;99.90;;;;;;4994571;28;20070;-72
2022/06/01 01:47:03;;;;;;;7.40;4.20;;;15.90;99.90;;;;;;4994896;28;20046;-73
2022/06/01 01:49:36;;;;;;;9.63;4.50;;;16.00;99.90;;;;;;4994915;28;20039;-71
2022/06/01 01:52:07;;;;;;;9.15;4.75;;;16.00;99.90;;;;;;5026446;28;20034;-73
2022/06/01 01:54:45;;;;;;;4.72;3.08;;;16.00;99.90;;;;;;4995124;28;20030;-73
2022/06/01 01:57:24;;;;;;;4.47;3.25;;;15.90;99.90;;;;;;4994721;28;20087;-72
2022/06/01 01:59:58;;;;;;;7.13;3.47;;;15.90;99.90;;;;;;4994933;28;20030;-73
2022/06/01 02:02:42;;;;;;;6.43;3.95;;;15.70;99.90;;;;;;4995240;28;20113;-70
2022/06/01 02:08:23;;;;;;;12.38;7.07;;;15.50;99.90;;;;;;5014924;28;20034;-66
2022/06/01 02:13:37;;;;;;;16.90;7.13;;;15.40;99.90;;;;;;4994586;28;20030;-69
2022/06/01 02:16:04;;;;;;;13.43;8.23;;;15.50;99.90;;;;;;4994283;28;20033;-71
2022/06/01 02:18:36;;;;;;;11.45;6.30;;;15.50;99.90;;;;;;4994614;28;20428;-67
2022/06/01 02:21:08;;;;;;;15.70;7.07;;;15.50;99.90;;;;;;5001039;28;20079;-65
2022/06/01 02:23:36;;;;;;;16.20;9.30;;;15.50;99.90;;;;;;5014219;28;20427;-70
2022/06/01 02:26:02;;;;;;;15.75;8.82;;;15.50;99.90;;;;;;5000149;28;20038;-66
2022/06/01 02:28:29;;;;;;;18.40;8.45;;;15.40;99.90;;;;;;4995134;28;20035;-72
2022/06/01 02:30:56;;;;;;;18.27;8.77;;;15.30;99.90;;;;;;4994907;28;20038;-66
2022/06/01 02:33:28;;;;;;;12.75;8.00;;;15.20;99.90;;;;;;5010127;28;20125;-67
2022/06/01 02:35:58;;;;;;;13.65;6.97;;;15.20;99.90;;;;;;4994646;28;20045;-69
2022/06/01 02:38:36;;;;;;;17.38;7.63;;;15.20;99.90;;;;;;5009843;28;20072;-67
2022/06/01 02:41:02;;;;;;;15.45;7.13;;;15.20;99.90;;;;;;4993915;28;20116;-66
2022/06/01 02:43:28;;;;;;;13.50;6.82;;;15.20;99.90;;;;;;4994304;28;20031;-69
2022/06/01 02:45:55;;;;;;;16.45;8.07;;;15.30;99.90;;;;;;4993852;28;20388;-68
2022/06/01 02:48:20;;;;;;;17.75;7.40;;;15.30;99.90;;;;;;4993600;28;20038;-67
2022/06/01 02:50:46;;;;;;;13.98;6.18;;;15.20;99.90;;;;;;4993632;28;20489;-71
2022/06/01 02:53:12;;;;;;;12.43;6.90;;;15.30;99.90;;;;;;4994230;28;20029;-74
2022/06/01 02:55:38;;;;;;;16.17;7.40;;;15.20;99.90;;;;;;4993332;28;20042;-66
2022/06/01 02:58:04;;;;;;;20.40;6.95;;;15.20;99.90;;;;;;4993687;28;20022;-73
2022/06/01 03:00:37;;;;;;;10.85;6.22;;;15.20;99.90;;;;;;4994257;28;20064;-73
2022/06/01 03:03:06;;;;;;;13.85;5.50;;;15.10;99.90;;;;;;4993875;28;20026;-68
2022/06/01 03:05:34;;;;;;;12.68;6.53;;;15.20;99.90;;;;;;4993841;28;20030;-71
2022/06/01 03:08:01;;;;;;;15.82;5.82;;;15.20;99.90;;;;;;4993577;28;20086;-66
2022/06/01 03:10:28;;;;;;;12.65;5.45;;;15.20;99.90;;;;;;4993390;28;20072;-69
2022/06/01 03:12:54;;;;;;;10.63;4.47;;;15.30;99.90;;;;;;4993552;28;20034;-66
2022/06/01 03:15:22;;;;;;;12.02;5.18;;;15.30;99.90;;;;;;4992880;28;20014;-71
2022/06/01 03:17:48;;;;;;;12.63;5.85;;;15.40;99.90;;;;;;4993215;28;20082;-68
2022/06/01 03:20:16;;;;;;;10.77;5.20;;;15.40;99.90;;;;;;4992806;28;20080;-70
2022/06/01 03:22:43;;;;;;;13.43;6.22;;;15.50;99.90;;;;;;4993467;28;20030;-69
2022/06/01 03:25:15;;;;;;;14.80;6.57;;;15.60;99.90;;;;;;4993495;28;20096;-69
2022/06/01 03:27:42;;;;;;;11.75;6.65;;;15.70;99.90;;;;;;4993027;28;20045;-70
2022/06/01 03:30:11;;;;;;;12.35;6.57;;;15.80;99.90;;;;;;4993273;28;20081;-71
2022/06/01 03:32:37;;;;;;;13.55;6.88;;;15.90;99.90;;;;;;4992816;28;20034;-71
2022/06/01 03:35:05;;;;;;;16.52;6.95;;;15.90;99.90;;;;;;4992904;28;20072;-72
2022/06/01 03:37:31;;;;;;;17.33;7.18;;;16.00;99.90;;;;;;4994320;28;20088;-73
2022/06/01 03:39:58;;;;;;;15.18;7.32;;;15.90;99.90;;;;;;4992595;28;20043;-71
2022/06/01 03:42:23;;;;;;;14.02;6.85;;;16.00;99.90;;;;;;4993026;28;20045;-70
2022/06/01 03:47:34;;;;;;;13.10;5.82;;;17.00;99.90;;;;;;4992209;28;20141;-73
2022/06/01 03:50:00;;;;;;;9.68;5.30;;;17.50;99.90;;;;;;4992557;28;20110;-71
2022/06/01 03:52:26;;;;;;;12.02;5.63;;;17.90;99.90;;;;;;4992319;28;20038;-70
2022/06/01 03:54:52;;;;;;;11.30;5.45;;;18.00;99.90;;;;;;4992864;28;20411;-73
2022/06/01 03:57:18;;;;;;;9.63;4.57;;;18.30;99.90;;;;;;4992587;28;20122;-68
2022/06/01 03:59:44;;;;;;;13.68;4.68;;;18.10;99.90;;;;;;4992654;28;20050;-69
2022/06/01 04:02:10;;;;;;;10.38;5.15;;;18.60;99.90;;;;;;4992121;28;20057;-71
2022/06/01 04:04:36;;;;;;;9.88;4.63;;;19.40;99.90;;;;;;4991888;28;20129;-70
2022/06/01 04:07:03;;;;;;;9.65;4.25;;;20.00;99.90;;;;;;4990827;28;20476;-73
2022/06/01 04:09:29;;;;;;;10.13;4.80;;;21.10;99.90;;;;;;4992112;28;20030;-74
2022/06/01 04:11:58;;;;;;;9.23;4.30;;;21.60;99.90;;;;;;4992632;28;20041;-73
2022/06/01 04:14:25;;;;;;;7.50;4.05;;;22.30;99.90;;;;;;4992209;28;20473;-71
2022/06/01 04:16:50;;;;;;;7.47;4.20;;;22.80;99.90;;;;;;4991945;28;20496;-70
2022/06/01 04:19:16;;;;;;;6.32;3.47;;;23.30;99.90;;;;;;4992674;28;20069;-71
2022/06/01 04:21:46;;;;;;;10.23;4.35;;;23.60;99.90;;;;;;4991707;28;20058;-67
2022/06/01 04:24:15;;;;;;;9.90;4.60;;;23.90;99.90;;;;;;4991744;28;20024;-65
2022/06/01 04:26:41;;;;;;;9.98;4.47;;;24.50;99.90;;;;;;4990896;28;20076;-67
2022/06/01 04:29:07;;;;;;;11.57;4.45;;;24.70;99.90;;;;;;4988216;28;20080;-72
2022/06/01 04:31:34;;;;;;;9.52;4.90;;;25.10;99.70;;;;;;4991946;28;20133;-67
2022/06/01 04:34:01;;;;;;;12.20;4.38;;;25.20;98.10;;;;;;4992047;28;20157;-72
2022/06/01 04:36:26;;;;;;;7.03;4.55;;;25.60;98.20;;;;;;4991643;28;20034;-70
2022/06/01 04:38:52;;;;;;;11.95;5.28;;;25.90;97.60;;;;;;4992096;28;20030;-71
2022/06/01 04:41:18;;;;;;;12.00;4.45;;;25.80;97.00;;;;;;4992195;28;20052;-71
2022/06/01 04:43:44;;;;;;;10.73;4.72;;;25.90;98.00;;;;;;4992137;28;20037;-70
2022/06/01 04:46:10;;;;;;;11.70;5.13;;;26.00;96.20;;;;;;4993874;28;20026;-71
2022/06/01 04:48:36;;;;;;;9.48;4.10;;;25.90;97.30;;;;;;4992258;28;20057;-70
2022/06/01 04:51:02;;;;;;;17.60;5.65;;;25.60;99.20;;;;;;4992135;28;20042;-71
2022/06/01 04:53:29;;;;;;;11.73;5.32;;;24.90;99.50;;;;;;4994660;28;20026;-71
2022/06/01 04:55:55;;;;;;;10.35;5.03;;;24.80;99.90;;;;;;5017287;28;20809;-71
2022/06/01 04:58:22;;;;;;;16.58;5.18;;;24.30;99.90;;;;;;4992623;28;20057;-68
2022/06/01 05:00:48;;;;;;;21.42;6.03;;;23.60;99.90;;;;;;4988590;28;20019;-70
2022/06/01 05:03:14;;;;;;;11.48;5.82;;;23.30;99.90;;;;;;4972439;28;20117;-68
2022/06/01 05:05:41;;;;;;;12.13;5.93;;;23.00;99.90;;;;;;4971329;28;20412;-70
2022/06/01 05:08:08;;;;;;;16.20;6.65;;;22.90;99.90;;;;;;4971686;28;20552;-68
2022/06/01 05:10:37;;;;;;;11.60;5.88;;;22.60;99.90;;;;;;4972674;28;20030;-63
2022/06/01 05:13:03;;;;;;;13.48;5.25;;;22.60;99.90;;;;;;4972981;28;20117;-63
2022/06/01 05:15:29;;;;;;;15.73;6.53;;;22.70;99.90;;;;;;4981543;28;20105;-65
2022/06/01 05:17:55;;;;;;;11.77;6.57;;;22.70;99.90;;;;;;4991316;28;20053;-70
2022/06/01 05:20:21;;;;;;;14.93;7.78;;;22.70;99.90;;;;;;4995711;28;20038;-71
2022/06/01 05:22:46;;;;;;;13.27;6.25;;;22.40;99.90;;;;;;4994633;28;20043;-71
2022/06/01 05:25:12;;;;;;;13.32;7.65;;;22.30;99.90;;;;;;4995967;28;20022;-71
2022/06/01 05:27:39;;;;;;;14.73;6.85;;;22.50;99.90;;;;;;4995647;28;20037;-70
2022/06/01 05:30:06;;;;;;;12.95;7.50;;;22.40;99.90;;;;;;4995664;28;20050;-71
2022/06/01 05:32:32;;;;;;;9.02;4.90;;;22.10;99.90;;;;;;4995642;28;20044;-71
2022/06/01 05:34:58;;;;;;;11.30;3.95;;;22.20;99.90;;;;;;4995818;28;20023;-70
2022/06/01 05:37:24;;;;;;;8.55;4.00;;;22.00;99.90;;;;;;4995746;28;20113;-71
2022/06/01 05:39:50;;;;;;;15.77;4.00;;;21.70;99.90;;;;;;4995332;28;20113;-71
2022/06/01 05:42:16;;;;;;;7.82;4.45;;;21.80;99.90;;;;;;4995634;28;20060;-73
2022/06/01 05:44:42;;;;;;;9.43;4.40;;;22.00;99.90;;;;;;4994535;28;20072;-73
2022/06/01 05:47:07;;;;;;;9.68;3.85;;;22.00;99.90;;;;;;4995541;28;20049;-72
2022/06/01 05:49:33;;;;;;;11.20;3.40;;;22.30;99.90;;;;;;4995590;28;20350;-71
2022/06/01 05:51:59;;;;;;;5.30;3.38;;;22.20;99.90;;;;;;4995364;28;20038;-72
2022/06/01 05:54:27;;;;;;;13.52;4.28;;;22.00;99.90;;;;;;4995189;28;20081;-73
2022/06/01 05:56:53;;;;;;;12.13;4.07;;;22.00;99.90;;;;;;4995166;28;20042;-72
2022/06/01 05:59:18;;;;;;;13.93;4.70;;;22.10;99.90;;;;;;4995066;28;20019;-70
2022/06/01 06:01:44;;;;;;;11.88;4.80;;;22.20;99.90;;;;;;4995107;28;20535;-72
2022/06/01 06:04:10;;;;;;;6.65;3.42;;;22.20;99.90;;;;;;4994818;28;20038;-72
2022/06/01 06:06:36;;;;;;;11.70;4.00;;;22.30;99.90;;;;;;4995251;28;20049;-70
2022/06/01 06:09:05;;;;;;;14.52;3.70;;;22.70;99.90;;;;;;4995179;28;20050;-72
2022/06/01 06:11:34;;;;;;;6.82;3.67;;;22.80;99.90;;;;;;4994727;28;20100;-72
2022/06/01 06:14:01;;;;;;;6.55;3.72;;;22.50;99.90;;;;;;4995189;28;20384;-73
2022/06/01 06:16:30;;;;;;;10.50;3.28;;;22.50;99.90;;;;;;4995393;28;20511;-70
2022/06/01 06:18:58;;;;;;;9.55;2.47;;;22.60;99.90;;;;;;4994848;28;20033;-71
2022/06/01 06:21:29;;;;;;;8.35;3.40;;;22.70;99.90;;;;;;4994543;28;20046;-71
2022/06/01 06:24:03;;;;;;;4.40;2.45;;;22.40;99.90;;;;;;4994593;28;20027;-71
2022/06/01 06:26:29;;;;;;;8.23;3.10;;;22.50;99.90;;;;;;4994538;28;20040;-72
2022/06/01 06:28:56;;;;;;;8.43;3.03;;;22.40;99.90;;;;;;4994653;28;20026;-70
2022/06/01 06:31:24;;;;;;;7.10;2.78;;;22.60;99.90;;;;;;4993535;28;20060;-72
2022/06/01 06:33:49;;;;;;;7.57;2.45;;;22.90;99.90;;;;;;4994361;28;20073;-72
2022/06/01 06:36:15;;;;;;;6.10;2.50;;;23.20;99.90;;;;;;4994615;28;20030;-69
2022/06/01 06:38:42;;;;;;;7.60;3.20;;;23.30;99.90;;;;;;4994197;28;20041;-71
2022/06/01 06:41:10;;;;;;;10.23;2.72;;;23.30;99.90;;;;;;4994236;28;20053;-72
2022/06/01 06:43:36;;;;;;;4.63;2.47;;;23.60;99.90;;;;;;4993986;28;20022;-72
2022/06/01 06:46:09;;;;;;;9.43;3.15;;;23.40;99.90;;;;;;4993708;28;20484;-71
2022/06/01 06:48:36;;;;;;;14.05;4.70;;;23.70;99.90;;;;;;4993949;28;20051;-72
2022/06/01 06:51:01;;;;;;;5.57;2.95;;;24.00;99.90;;;;;;4993865;28;20038;-72
2022/06/01 06:53:28;;;;;;;11.52;2.70;;;23.80;99.90;;;;;;4993779;28;20041;-72
2022/06/01 06:55:54;;;;;;;7.70;3.10;;;24.20;99.90;;;;;;4993859;28;20022;-72
2022/06/01 06:58:20;;;;;;;9.07;3.15;;;24.10;99.90;;;;;;4993545;28;20435;-72
2022/06/01 07:00:46;;;;;;;7.60;3.17;;;24.00;99.90;;;;;;4993389;28;20029;-72
2022/06/01 07:03:13;;;;;;;11.65;3.78;;;23.70;99.90;;;;;;4993659;28;20030;-73
2022/06/01 07:08:25;;;;;;;5.40;2.38;;;24.10;99.90;;;;;;4993344;28;20034;-73
2022/06/01 07:10:51;;;;;;;6.00;2.63;;;24.40;99.90;;;;;;4993207;28;20022;-72
2022/06/01 07:13:17;;;;;;;5.60;2.85;;;24.10;99.90;;;;;;4993068;28;20029;-73
2022/06/01 07:15:43;;;;;;;7.20;3.15;;;24.10;99.90;;;;;;4993040;28;20026;-71
2022/06/01 07:18:09;;;;;;;3.60;2.35;;;23.70;99.90;;;;;;4993452;28;20022;-70
2022/06/01 07:20:35;;;;;;;6.88;2.60;;;23.80;99.90;;;;;;4992995;28;20034;-73
2022/06/01 07:23:01;;;;;;;7.88;3.50;;;24.00;99.90;;;;;;4993156;28;20019;-72
2022/06/01 07:25:28;;;;;;;9.40;3.25;;;24.30;99.90;;;;;;4992681;28;20153;-73
2022/06/01 07:27:55;;;;;;;6.47;3.50;;;24.10;99.90;;;;;;4993155;28;20208;-73
2022/06/01 07:30:22;;;;;;;8.25;3.90;;;24.30;99.90;;;;;;4993064;28;20042;-72
2022/06/01 07:32:49;;;;;;;7.85;3.65;;;24.50;99.90;;;;;;4993447;28;20165;-73
2022/06/01 07:35:16;;;;;;;22.40;3.92;;;24.60;99.90;;;;;;4993514;28;20050;-71
2022/06/01 07:43:13;;;;;;;6.95;3.33;;;25.00;99.90;;;;;;4992879;28;20072;-71
2022/06/01 07:45:45;;;;;;;11.10;4.15;;;25.10;99.90;;;;;;4992811;28;20079;-72
2022/06/01 07:48:12;;;;;;;9.25;3.20;;;25.10;99.90;;;;;;4993093;28;20042;-73
2022/06/01 07:50:38;;;;;;;8.10;2.83;;;25.50;99.90;;;;;;4992246;28;20030;-72
2022/06/01 07:53:08;;;;;;;7.03;3.03;;;25.40;99.90;;;;;;4991967;28;20500;-72
2022/06/01 07:55:36;;;;;;;10.35;3.80;;;25.50;99.90;;;;;;4992609;28;20038;-72
2022/06/01 07:58:01;;;;;;;9.32;4.15;;;25.30;99.90;;;;;;4992253;28;20472;-73
2022/06/01 08:00:28;;;;;;;8.10;3.45;;;25.20;99.90;;;;;;4992788;28;20026;-73
2022/06/01 08:02:54;;;;;;;7.03;3.30;;;25.10;99.30;;;;;;4992601;28;20031;-72
2022/06/01 08:05:21;;;;;;;10.15;4.20;;;25.30;99.90;;;;;;4992642;28;20038;-72
2022/06/01 08:07:47;;;;;;;8.25;3.58;;;25.30;99.90;;;;;;4992619;28;20105;-72
2022/06/01 08:10:15;;;;;;;7.32;3.38;;;25.50;99.70;;;;;;4992780;28;20230;-73
2022/06/01 08:15:26;;;;;;;7.50;3.08;;;26.10;99.90;;;;;;4992638;28;20045;-72
2022/06/01 08:17:53;;;;;;;11.38;3.08;;;26.00;99.00;;;;;;4992577;28;20018;-73
2022/06/01 08:20:20;;;;;;;6.45;3.05;;;25.60;97.10;;;;;;4992532;28;20034;-72
2022/06/01 08:22:45;;;;;;;6.63;3.40;;;25.60;99.90;;;;;;4992385;28;20057;-71
2022/06/01 08:25:16;;;;;;;5.53;2.95;;;25.60;99.90;;;;;;4992133;28;20069;-72
2022/06/01 08:27:42;;;;;;;7.78;3.40;;;25.50;99.90;;;;;;4991812;28;20113;-72
2022/06/01 08:30:08;;;;;;;7.35;2.90;;;26.00;99.90;;;;;;4992615;28;20033;-72
2022/06/01 08:32:35;;;;;;;6.28;3.88;;;26.00;98.30;;;;;;4992291;28;20469;-73
2022/06/01 08:35:02;;;;;;;12.95;3.78;;;26.10;99.90;;;;;;4992419;28;20026;-72
2022/06/01 08:37:28;;;;;;;6.78;3.00;;;26.40;99.90;;;;;;4992354;28;20045;-71
2022/06/01 08:39:54;;;;;;;6.15;3.03;;;26.10;96.50;;;;;;4992433;28;20022;-71
2022/06/01 08:42:23;;;;;;;10.43;3.10;;;26.40;99.40;;;;;;4992094;28;20088;-71
2022/06/01 08:44:50;;;;;;;6.20;2.95;;;26.70;99.00;;;;;;4992428;28;20369;-71
2022/06/01 08:47:31;;;;;;;7.18;3.90;;;26.60;99.90;;;;;;4992295;28;20049;-71
2022/06/01 08:50:00;;;;;;;7.78;3.08;;;26.60;99.70;;;;;;4991617;28;20038;-71
2022/06/01 08:52:28;;;;;;;6.18;3.45;;;26.80;98.10;;;;;;4992155;28;20510;-70
2022/06/01 08:54:54;;;;;;;7.10;3.25;;;26.90;96.10;;;;;;4995172;28;20041;-70
2022/06/01 08:57:28;;;;;;;8.02;3.30;;;26.60;99.90;;;;;;4995893;28;20133;-71
2022/06/01 09:00:12;;;;;;;7.00;3.92;;;26.70;97.90;;;;;;4996109;28;20030;-70
2022/06/01 09:02:56;;;;;;;14.77;4.70;;;26.50;99.90;;;;;;4995954;28;20473;-71
2022/06/01 09:05:32;;;;;;;10.05;4.20;;;26.60;99.90;;;;;;4996106;28;20034;-70
2022/06/01 09:08:13;;;;;;;11.25;4.53;;;26.30;99.90;;;;;;4995964;28;20069;-70
2022/06/01 09:10:55;;;;;;;5.70;3.65;;;26.70;99.90;;;;;;4996097;28;20026;-70
2022/06/01 09:13:30;;;;;;;8.55;4.28;;;26.60;99.90;;;;;;4995735;28;20065;-71
2022/06/01 09:16:03;;;;;;;10.18;4.47;;;26.70;99.90;;;;;;4995806;28;20473;-71
2022/06/01 09:18:40;;;;;;;10.40;4.57;;;26.90;99.90;;;;;;4995868;28;20521;-71
2022/06/01 09:24:03;;;;;;;7.03;4.05;;;26.80;99.90;;;;;;4995891;28;20041;-70
2022/06/01 09:26:29;;;;;;;6.07;4.25;;;27.00;99.90;;;;;;4990615;28;20018;-70
2022/06/01 09:29:00;;;;;;;8.35;4.43;;;26.70;99.30;;;;;;4988666;28;20042;-69
2022/06/01 09:31:36;;;;;;;9.25;4.45;;;26.80;98.90;;;;;;5025344;28;20084;-69
2022/06/01 09:34:22;;;;;;;9.93;5.05;;;26.80;99.90;;;;;;4995541;28;20058;-71
2022/06/01 09:37:08;;;;;;;9.98;4.63;;;26.90;97.80;;;;;;4995851;28;20476;-72
2022/06/01 09:39:37;;;;;;;7.25;4.68;;;26.90;98.00;;;;;;4995811;28;20033;-71
2022/06/01 09:42:11;;;;;;;7.95;4.15;;;27.10;99.90;;;;;;4995112;28;20076;-70
2022/06/01 09:44:44;;;;;;;7.53;4.30;;;26.90;99.10;;;;;;4995094;28;20026;-72
2022/06/01 09:47:42;;;;;;;10.25;4.63;;;26.80;98.20;;;;;;4995393;28;20042;-71
2022/06/01 09:50:21;;;;;;;15.18;4.88;;;26.90;99.90;;;;;;4995326;28;20404;-71
2022/06/01 09:52:47;;;;;;;8.02;4.38;;;26.80;97.90;;;;;;4995604;28;20473;-68
2022/06/01 09:55:19;;;;;;;10.80;5.32;;;26.70;99.00;;;;;;5026353;28;20045;-72
2022/06/01 10:06:05;;;;;;;7.22;3.80;;;27.00;99.60;;;;;;4994888;28;20046;-69
2022/06/01 10:06:54;;;;;;;6.57;4.35;;;26.90;98.10;;;;;;4992929;28;20543;-69
2022/06/01 10:09:23;;;;;;;7.88;4.72;;;27.00;99.90;;;;;;4993189;28;20089;-71
2022/06/01 10:11:51;;;;;;;10.02;5.72;;;27.10;97.60;;;;;;4995446;28;20440;-70
2022/06/01 10:14:21;;;;;;;13.32;5.35;;;27.00;97.50;;;;;;4994829;28;20457;-71
2022/06/01 10:17:09;;;;;;;10.45;5.05;;;27.00;97.90;;;;;;4994824;28;20089;-70
2022/06/01 10:19:41;;;;;;;13.60;6.10;;;27.00;99.60;;;;;;4994910;28;20113;-70
2022/06/01 10:22:15;;;;;;;9.80;5.55;;;27.00;97.40;;;;;;4995127;28;20109;-70
2022/06/01 10:25:00;;;;;;;10.75;5.43;;;27.20;99.90;;;;;;4994087;28;20469;-71
2022/06/01 10:27:35;;;;;;;11.95;6.07;;;27.30;99.90;;;;;;4994218;28;20023;-70
2022/06/01 10:30:06;;;;;;;12.15;5.22;;;27.40;99.90;;;;;;4994382;28;20488;-69
2022/06/01 10:32:47;;;;;;;;;;;27.20;99.90;;;;;;4994840;28;20554;-71
2022/06/01 10:35:29;;;;;;;14.65;5.50;;;27.40;99.90;;;;;;4994625;28;19956;-72
2022/06/01 10:37:54;;;;;;;;;;;27.50;98.80;;;;;;4994811;28;20113;-70
2022/06/01 10:40:28;;;;;;;12.30;6.25;;;27.30;97.50;;;;;;4994593;28;20340;-70
2022/06/01 10:43:18;;;;;;;12.25;5.97;;;27.40;96.80;;;;;;4993690;28;20057;-71
2022/06/01 10:45:55;;;;;;;13.32;6.07;;;27.40;98.20;;;;;;4994103;28;20038;-71
2022/06/01 10:48:48;;;;;;;11.85;6.07;;;27.40;97.90;;;;;;4993914;28;20138;-72
2022/06/01 10:51:19;;;;;;;14.90;6.70;;;27.60;99.90;;;;;;4993638;28;20054;-70
2022/06/01 10:53:59;;;;;;;11.23;6.00;;;27.50;98.40;;;;;;4993679;28;20022;-71
2022/06/01 10:56:26;;;;;;;10.43;5.95;;;27.70;96.80;;;;;;4993607;28;20042;-72
2022/06/01 10:58:58;;;;;;;10.13;5.53;;;27.70;97.60;;;;;;5024765;28;20327;-71
2022/06/01 11:01:23;;;;;;;;;;;27.50;96.90;;;;;;4994712;28;20041;-72
2022/06/01 11:04:16;;;;;;;11.30;5.65;;;27.50;99.20;;;;;;4993750;28;19905;-70
2022/06/01 11:07:03;;;;;;;18.92;6.57;;;27.50;97.90;;;;;;4993485;28;20026;-71
2022/06/01 11:09:34;;;;;;;10.88;5.65;;;27.70;99.90;;;;;;4993062;28;20074;-71
2022/06/01 11:12:06;;;;;;;10.20;5.65;;;27.70;98.60;;;;;;4991378;28;20038;-70
2022/06/01 11:14:44;;;;;;;9.77;5.50;;;27.70;98.10;;;;;;4991389;28;20022;-70
2022/06/01 11:17:48;;;;;;;11.18;6.43;;;27.80;98.10;;;;;;4992316;28;20030;-71
2022/06/01 11:20:29;;;;;;;9.60;5.22;;;27.90;97.60;;;;;;4970961;28;20031;-71
2022/06/01 11:23:36;;;;;;;10.07;5.68;;;27.70;96.30;;;;;;4970564;28;20073;-71
2022/06/01 11:26:13;;;;;;;9.88;5.22;;;27.90;97.50;;;;;;4913434;29;20040;-70
2022/06/01 11:29:00;;;;;;;11.02;6.68;;;27.80;96.50;;;;;;4913726;29;20494;-70
2022/06/01 11:31:28;;;;;;;10.10;5.22;;;27.90;98.00;;;;;;4912909;29;20079;-70
2022/06/01 11:34:02;;;;;;;10.75;6.45;;;27.80;97.90;;;;;;4910386;29;20036;-71
2022/06/01 11:36:48;;;;;;;9.88;5.70;;;28.00;99.90;;;;;;4911154;29;20159;-71
2022/06/01 11:39:38;;;;;;;15.93;6.15;;;28.00;98.60;;;;;;4911450;29;20025;-71
2022/06/01 11:42:43;;;;;;;12.05;6.05;;;27.90;96.40;;;;;;5245187;22;20441;-71
2022/06/01 11:45:19;;;;;;;12.48;7.28;;;28.00;96.20;;;;;;4991456;28;20111;-71
2022/06/01 11:47:52;;;;;;;10.90;5.97;;;28.00;97.60;;;;;;4992124;28;20113;-72
2022/06/01 11:50:26;;;;;;;14.07;5.18;;;28.30;99.90;;;;;;4992114;28;20467;-69
2022/06/01 11:52:57;;;;;;;9.68;5.50;;;28.40;94.70;;;;;;4988431;28;20623;-70
2022/06/01 11:55:23;;;;;;;9.10;5.55;;;28.20;93.80;;;;;;4988945;28;20033;-72
2022/06/01 11:58:01;;;;;;;15.48;6.25;;;28.50;99.90;;;;;;4991355;28;20365;-71
2022/06/01 12:00:35;;;;;;;11.10;5.80;;;;;;;;;;4989855;28;20057;-71
2022/06/01 12:03:24;;;;;;;11.70;5.60;;;28.20;94.50;;;;;;4992012;28;20026;-71
2022/06/01 12:06:11;;;;;;;10.63;6.70;;;28.10;97.00;;;;;;4988762;28;20504;-72
2022/06/01 12:08:54;;;;;;;10.63;6.13;;;28.00;97.30;;;;;;4990018;28;20053;-71
2022/06/01 12:11:42;;;;;;;9.88;6.13;;;28.10;97.60;;;;;;4989854;28;20042;-69
2022/06/01 12:14:23;;;;;;;9.88;5.57;;;28.20;98.60;;;;;;4988426;28;20595;-70
2022/06/01 12:17:22;;;;;;;12.80;6.23;;;28.10;95.40;;;;;;4989860;28;20120;-71
2022/06/01 12:19:51;;;;;;;11.60;5.25;;;28.30;95.60;;;;;;4990893;28;20268;-70
2022/06/01 12:28:47;;;;;;;10.93;6.35;;;28.20;99.90;;;;;;4989722;28;20504;-71
2022/06/01 12:31:17;;;;;;;8.45;5.65;;;28.20;99.90;;;;;;4990492;28;20484;-69
2022/06/01 12:34:01;;;;;;;7.70;5.03;;;28.40;99.90;;;;;;4990057;28;20077;-70
2022/06/01 12:36:51;;;;;;;8.82;4.47;;;28.30;94.10;;;;;;4988182;28;20663;-70
2022/06/01 12:39:26;;;;;;;9.23;5.35;;;28.30;94.10;;;;;;4989924;28;20034;-71
2022/06/01 12:41:59;;;;;;;7.40;4.88;;;28.30;95.90;;;;;;4988475;28;20034;-70
2022/06/01 12:44:26;;;;;;;10.88;4.45;;;28.20;90.40;;;;;;4970148;28;20461;-71
2022/06/01 12:46:52;;;;;;;11.02;4.57;;;28.10;90.30;;;;;;4972625;28;20035;-71
2022/06/01 12:49:37;;;;;;;11.77;4.72;;;28.10;93.20;;;;;;4972397;28;20102;-72
2022/06/01 12:52:18;;;;;;;9.18;4.72;;;28.30;95.40;;;;;;4972390;28;20034;-71
2022/06/01 12:55:00;;;;;;;8.60;4.07;;;28.40;91.00;;;;;;4969588;28;20117;-69
2022/06/01 12:57:32;;;;;;;8.50;4.65;;;28.30;90.30;;;;;;4968265;28;20529;-71
2022/06/01 12:59:57;;;;;;;;;;;28.20;89.90;;;;;;4971396;28;20418;-71
2022/06/01 13:02:23;;;;;;;15.70;4.57;;;28.20;89.70;;;;;;4970874;28;19913;-70
2022/06/01 13:04:54;;;;;;;9.48;4.65;;;28.30;90.50;;;;;;4971144;28;20038;-71
2022/06/01 13:07:26;;;;;;;12.52;4.80;;;28.40;88.70;;;;;;4971553;28;20026;-69
2022/06/01 13:10:20;;;;;;;8.63;4.18;;;28.40;90.10;;;;;;4970466;28;20035;-72
2022/06/01 13:12:47;;;;;;;7.38;4.28;;;28.60;93.00;;;;;;4970029;28;20058;-71
2022/06/01 13:15:22;;;;;;;10.55;4.70;;;28.70;95.60;;;;;;4968273;28;20050;-70
2022/06/01 13:17:55;;;;;;;9.32;4.18;;;28.70;96.20;;;;;;4967826;28;20039;-71
2022/06/01 13:20:26;;;;;;;10.07;4.28;;;28.60;92.70;;;;;;4969726;28;20038;-71
2022/06/01 13:22:53;;;;;;;8.30;3.88;;;28.70;93.30;;;;;;4987925;28;20109;-70
2022/06/01 13:25:25;;;;;;;10.85;4.30;;;28.60;93.10;;;;;;4987819;28;20030;-70
2022/06/01 13:27:51;;;;;;;9.52;4.20;;;;;;;;;;4989120;28;20038;-70
2022/06/01 13:30:18;;;;;;;16.65;5.47;;;29.00;99.20;;;;;;4989353;28;20058;-68
2022/06/01 13:32:47;;;;;;;8.48;4.47;;;28.70;88.30;;;;;;4990717;28;20030;-72
2022/06/01 13:35:33;;;;;;;10.75;4.22;;;28.80;91.30;;;;;;4988892;28;20054;-72
2022/06/01 13:38:01;;;;;;;8.45;4.63;;;28.80;94.20;;;;;;4986635;28;20492;-71
2022/06/01 13:40:35;;;;;;;12.68;4.53;;;28.60;92.10;;;;;;4991800;28;20026;-70